sensor_id;sensor_type;location;lat;lon;timestamp;temperature;humidity
52044;DHT22;38053;53.100;6.078;2024-03-29T00:02:03;8.40;99.90
52044;DHT22;38053;53.100;6.078;2024-03-29T00:04:29;8.40;99.90
52044;DHT22;38053;53.100;6.078;2024-03-29T00:06:55;8.30;99.90
52044;DHT22;38053;53.100;6.078;2024-03-29T00:09:20;8.30;99.90
52044;DHT22;38053;53.100;6.078;2024-03-29T00:11:46;8.30;99.90
52044;DHT22;38053;53.100;6.078;2024-03-29T00:14:12;8.30;99.90
52044;DHT22;38053;53.100;6.078;2024-03-29T00:16:38;8.30;99.90
52044;DHT22;38053;53.100;6.078;2024-03-29T00:19:03;8.30;99.90
52044;DHT22;38053;53.100;6.078;2024-03-29T00:21:35;8.30;99.90
52044;DHT22;38053;53.100;6.078;2024-03-29T00:24:01;8.20;99.90
52044;DHT22;38053;53.100;6.078;2024-03-29T00:26:26;8.30;99.90
52044;DHT22;38053;53.100;6.078;2024-03-29T00:28:52;8.30;99.90
52044;DHT22;38053;53.100;6.078;2024-03-29T00:31:20;8.30;99.90
52044;DHT22;38053;53.100;6.078;2024-03-29T00:33:46;8.30;99.90
52044;DHT22;38053;53.100;6.078;2024-03-29T00:36:11;8.30;99.90
52044;DHT22;38053;53.100;6.078;2024-03-29T00:38:37;8.20;99.90
52044;DHT22;38053;53.100;6.078;2024-03-29T00:41:03;8.20;99.90
52044;DHT22;38053;53.100;6.078;2024-03-29T00:43:28;8.20;99.90
52044;DHT22;38053;53.100;6.078;2024-03-29T00:45:54;8.30;99.90
52044;DHT22;38053;53.100;6.078;2024-03-29T00:48:20;8.30;99.90
52044;DHT22;38053;53.100;6.078;2024-03-29T00:50:46;8.40;99.90
52044;DHT22;38053;53.100;6.078;2024-03-29T00:53:12;8.40;99.90
52044;DHT22;38053;53.100;6.078;2024-03-29T00:55:38;8.40;99.90
52044;DHT22;38053;53.100;6.078;2024-03-29T00:58:03;8.40;99.90
52044;DHT22;38053;53.100;6.078;2024-03-29T01:00:29;8.40;99.90
52044;DHT22;38053;53.100;6.078;2024-03-29T01:02:55;8.50;99.90
52044;DHT22;38053;53.100;6.078;2024-03-29T01:05:20;8.50;99.90
52044;DHT22;38053;53.100;6.078;2024-03-29T01:07:46;8.50;99.90
52044;DHT22;38053;53.100;6.078;2024-03-29T01:10:12;8.50;99.90
52044;DHT22;38053;53.100;6.078;2024-03-29T01:12:37;8.50;99.90
52044;DHT22;38053;53.100;6.078;2024-03-29T01:15:05;8.50;99.90
52044;DHT22;38053;53.100;6.078;2024-03-29T01:17:31;8.50;99.90
52044;DHT22;38053;53.100;6.078;2024-03-29T01:19:57;8.50;99.90
52044;DHT22;38053;53.100;6.078;2024-03-29T01:22:22;8.50;99.90
52044;DHT22;38053;53.100;6.078;2024-03-29T01:24:48;8.40;99.90
52044;DHT22;38053;53.100;6.078;2024-03-29T01:27:14;8.40;99.90
52044;DHT22;38053;53.100;6.078;2024-03-29T01:29:39;8.40;99.90
52044;DHT22;38053;53.100;6.078;2024-03-29T01:32:05;8.40;99.90
52044;DHT22;38053;53.100;6.078;2024-03-29T01:34:31;8.40;99.90
52044;DHT22;38053;53.100;6.078;2024-03-29T01:36:57;8.30;99.90
52044;DHT22;38053;53.100;6.078;2024-03-29T01:39:23;8.30;99.90
52044;DHT22;38053;53.100;6.078;2024-03-29T01:41:54;8.30;99.90
52044;DHT22;38053;53.100;6.078;2024-03-29T01:44:20;8.20;99.90
52044;DHT22;38053;53.100;6.078;2024-03-29T01:46:46;8.10;99.90
52044;DHT22;38053;53.100;6.078;2024-03-29T01:49:13;8.10;99.90
52044;DHT22;38053;53.100;6.078;2024-03-29T01:51:40;8.10;99.90
52044;DHT22;38053;53.100;6.078;2024-03-29T01:54:06;8.00;99.90
52044;DHT22;38053;53.100;6.078;2024-03-29T01:56:35;8.00;99.90
52044;DHT22;38053;53.100;6.078;2024-03-29T01:59:03;7.90;99.90
52044;DHT22;38053;53.100;6.078;2024-03-29T02:01:30;7.90;99.90
52044;DHT22;38053;53.100;6.078;2024-03-29T02:04:02;7.80;99.90
52044;DHT22;38053;53.100;6.078;2024-03-29T02:06:28;7.80;99.90
52044;DHT22;38053;53.100;6.078;2024-03-29T02:09:06;7.70;99.90
52044;DHT22;38053;53.100;6.078;2024-03-29T02:11:33;7.70;99.90
52044;DHT22;38053;53.100;6.078;2024-03-29T02:13:58;7.70;99.90
52044;DHT22;38053;53.100;6.078;2024-03-29T02:16:24;7.70;99.90
52044;DHT22;38053;53.100;6.078;2024-03-29T02:18:50;7.60;99.90
52044;DHT22;38053;53.100;6.078;2024-03-29T02:21:18;7.60;99.90
52044;DHT22;38053;53.100;6.078;2024-03-29T02:24:05;7.60;99.90
52044;DHT22;38053;53.100;6.078;2024-03-29T02:26:31;7.60;99.90
52044;DHT22;38053;53.100;6.078;2024-03-29T02:29:01;7.50;99.90
52044;DHT22;38053;53.100;6.078;2024-03-29T02:31:27;7.50;99.90
52044;DHT22;38053;53.100;6.078;2024-03-29T02:33:59;7.50;99.90
52044;DHT22;38053;53.100;6.078;2024-03-29T02:36:34;7.50;99.90
52044;DHT22;38053;53.100;6.078;2024-03-29T02:39:00;7.50;99.90
52044;DHT22;38053;53.100;6.078;2024-03-29T02:41:25;7.50;99.90
52044;DHT22;38053;53.100;6.078;2024-03-29T02:43:52;7.50;99.90
52044;DHT22;38053;53.100;6.078;2024-03-29T02:46:19;7.50;99.90
52044;DHT22;38053;53.100;6.078;2024-03-29T02:48:47;7.50;99.90
52044;DHT22;38053;53.100;6.078;2024-03-29T02:51:13;7.50;99.90
52044;DHT22;38053;53.100;6.078;2024-03-29T02:53:39;7.50;99.90
52044;DHT22;38053;53.100;6.078;2024-03-29T02:56:07;7.50;99.90
52044;DHT22;38053;53.100;6.078;2024-03-29T02:58:34;7.40;99.90
52044;DHT22;38053;53.100;6.078;2024-03-29T03:01:10;7.40;99.90
52044;DHT22;38053;53.100;6.078;2024-03-29T03:03:36;7.40;99.90
52044;DHT22;38053;53.100;6.078;2024-03-29T03:06:02;7.40;99.90
52044;DHT22;38053;53.100;6.078;2024-03-29T03:08:31;7.30;99.90
52044;DHT22;38053;53.100;6.078;2024-03-29T03:11:18;7.30;99.90
52044;DHT22;38053;53.100;6.078;2024-03-29T03:13:44;7.30;99.90
52044;DHT22;38053;53.100;6.078;2024-03-29T03:16:09;7.30;99.90
52044;DHT22;38053;53.100;6.078;2024-03-29T03:18:35;7.30;99.90
52044;DHT22;38053;53.100;6.078;2024-03-29T03:21:01;7.20;99.90
52044;DHT22;38053;53.100;6.078;2024-03-29T03:23:27;7.20;99.90
52044;DHT22;38053;53.100;6.078;2024-03-29T03:25:57;7.30;99.90
52044;DHT22;38053;53.100;6.078;2024-03-29T03:28:23;7.30;99.90
52044;DHT22;38053;53.100;6.078;2024-03-29T03:30:51;7.40;99.90
52044;DHT22;38053;53.100;6.078;2024-03-29T03:33:51;7.40;99.90
52044;DHT22;38053;53.100;6.078;2024-03-29T03:36:19;7.40;99.90
52044;DHT22;38053;53.100;6.078;2024-03-29T03:38:48;7.50;99.90
52044;DHT22;38053;53.100;6.078;2024-03-29T03:41:13;7.40;99.90
52044;DHT22;38053;53.100;6.078;2024-03-29T03:43:39;7.50;99.90
52044;DHT22;38053;53.100;6.078;2024-03-29T03:46:05;7.50;99.90
52044;DHT22;38053;53.100;6.078;2024-03-29T03:48:30;7.50;99.90
52044;DHT22;38053;53.100;6.078;2024-03-29T03:50:59;7.50;99.90
52044;DHT22;38053;53.100;6.078;2024-03-29T03:53:25;7.40;99.90
52044;DHT22;38053;53.100;6.078;2024-03-29T03:55:51;7.40;99.90
52044;DHT22;38053;53.100;6.078;2024-03-29T03:58:16;7.40;99.90
52044;DHT22;38053;53.100;6.078;2024-03-29T04:00:45;7.50;99.90
52044;DHT22;38053;53.100;6.078;2024-03-29T04:03:10;7.50;99.90
52044;DHT22;38053;53.100;6.078;2024-03-29T04:05:37;7.50;99.90
52044;DHT22;38053;53.100;6.078;2024-03-29T04:08:04;7.50;99.90
52044;DHT22;38053;53.100;6.078;2024-03-29T04:10:30;7.50;99.90
52044;DHT22;38053;53.100;6.078;2024-03-29T04:12:55;7.50;99.90
52044;DHT22;38053;53.100;6.078;2024-03-29T04:15:21;7.50;99.90
52044;DHT22;38053;53.100;6.078;2024-03-29T04:17:47;7.50;99.90
52044;DHT22;38053;53.100;6.078;2024-03-29T04:20:20;7.50;99.90
52044;DHT22;38053;53.100;6.078;2024-03-29T04:22:45;7.40;99.90
52044;DHT22;38053;53.100;6.078;2024-03-29T04:25:11;7.50;99.90
52044;DHT22;38053;53.100;6.078;2024-03-29T04:27:37;7.40;99.90
52044;DHT22;38053;53.100;6.078;2024-03-29T04:30:03;7.50;99.90
52044;DHT22;38053;53.100;6.078;2024-03-29T04:32:32;7.50;99.90
52044;DHT22;38053;53.100;6.078;2024-03-29T04:34:57;7.50;99.90
52044;DHT22;38053;53.100;6.078;2024-03-29T04:37:23;7.50;99.90
52044;DHT22;38053;53.100;6.078;2024-03-29T04:39:49;7.50;99.90
52044;DHT22;38053;53.100;6.078;2024-03-29T04:42:15;7.60;99.90
52044;DHT22;38053;53.100;6.078;2024-03-29T04:44:43;7.60;99.90
52044;DHT22;38053;53.100;6.078;2024-03-29T04:47:09;7.60;99.90
52044;DHT22;38053;53.100;6.078;2024-03-29T04:49:35;7.70;99.90
52044;DHT22;38053;53.100;6.078;2024-03-29T04:52:06;7.70;99.90
52044;DHT22;38053;53.100;6.078;2024-03-29T04:54:33;7.70;99.90
52044;DHT22;38053;53.100;6.078;2024-03-29T04:57:00;7.70;99.90
52044;DHT22;38053;53.100;6.078;2024-03-29T04:59:32;7.80;99.90
52044;DHT22;38053;53.100;6.078;2024-03-29T05:02:02;7.80;99.90
52044;DHT22;38053;53.100;6.078;2024-03-29T05:04:28;7.80;99.90
52044;DHT22;38053;53.100;6.078;2024-03-29T05:06:55;7.80;99.90
52044;DHT22;38053;53.100;6.078;2024-03-29T05:09:22;7.80;99.90
52044;DHT22;38053;53.100;6.078;2024-03-29T05:11:48;7.80;99.90
52044;DHT22;38053;53.100;6.078;2024-03-29T05:14:21;7.90;99.90
52044;DHT22;38053;53.100;6.078;2024-03-29T05:16:48;7.90;99.90
52044;DHT22;38053;53.100;6.078;2024-03-29T05:19:17;7.90;99.90
52044;DHT22;38053;53.100;6.078;2024-03-29T05:21:46;7.90;99.90
52044;DHT22;38053;53.100;6.078;2024-03-29T05:24:11;7.90;99.90
52044;DHT22;38053;53.100;6.078;2024-03-29T05:26:37;7.90;99.90
52044;DHT22;38053;53.100;6.078;2024-03-29T05:29:03;8.00;99.90
52044;DHT22;38053;53.100;6.078;2024-03-29T05:31:29;8.00;99.90
52044;DHT22;38053;53.100;6.078;2024-03-29T05:33:57;8.00;99.90
52044;DHT22;38053;53.100;6.078;2024-03-29T05:36:27;8.00;99.90
52044;DHT22;38053;53.100;6.078;2024-03-29T05:38:53;8.00;99.90
52044;DHT22;38053;53.100;6.078;2024-03-29T05:41:26;8.00;99.90
52044;DHT22;38053;53.100;6.078;2024-03-29T05:43:51;8.10;99.90
52044;DHT22;38053;53.100;6.078;2024-03-29T05:46:17;8.10;99.90
52044;DHT22;38053;53.100;6.078;2024-03-29T05:48:43;8.10;99.90
52044;DHT22;38053;53.100;6.078;2024-03-29T05:51:09;8.10;99.90
52044;DHT22;38053;53.100;6.078;2024-03-29T05:53:35;8.10;99.90
52044;DHT22;38053;53.100;6.078;2024-03-29T05:56:01;8.10;99.90
52044;DHT22;38053;53.100;6.078;2024-03-29T05:58:26;8.10;99.90
52044;DHT22;38053;53.100;6.078;2024-03-29T06:00:52;8.10;99.90
52044;DHT22;38053;53.100;6.078;2024-03-29T06:03:21;8.10;99.90
52044;DHT22;38053;53.100;6.078;2024-03-29T06:05:46;8.20;99.90
52044;DHT22;38053;53.100;6.078;2024-03-29T06:08:18;8.20;99.90
52044;DHT22;38053;53.100;6.078;2024-03-29T06:10:46;8.10;99.90
52044;DHT22;38053;53.100;6.078;2024-03-29T06:13:12;8.10;99.90
52044;DHT22;38053;53.100;6.078;2024-03-29T06:15:55;8.10;99.90
52044;DHT22;38053;53.100;6.078;2024-03-29T06:18:49;8.10;99.90
52044;DHT22;38053;53.100;6.078;2024-03-29T06:21:15;8.10;99.90
52044;DHT22;38053;53.100;6.078;2024-03-29T06:23:40;8.10;99.90
52044;DHT22;38053;53.100;6.078;2024-03-29T06:26:06;8.10;99.90
52044;DHT22;38053;53.100;6.078;2024-03-29T06:28:35;8.00;99.90
52044;DHT22;38053;53.100;6.078;2024-03-29T06:31:08;8.00;99.90
52044;DHT22;38053;53.100;6.078;2024-03-29T06:33:33;8.00;99.90
52044;DHT22;38053;53.100;6.078;2024-03-29T06:35:59;8.10;99.90
52044;DHT22;38053;53.100;6.078;2024-03-29T06:38:24;8.10;99.90
52044;DHT22;38053;53.100;6.078;2024-03-29T06:40:50;8.10;99.90
52044;DHT22;38053;53.100;6.078;2024-03-29T06:43:19;8.20;99.90
52044;DHT22;38053;53.100;6.078;2024-03-29T06:45:44;8.30;99.90
52044;DHT22;38053;53.100;6.078;2024-03-29T06:48:43;8.30;99.90
52044;DHT22;38053;53.100;6.078;2024-03-29T06:51:09;8.30;99.90
52044;DHT22;38053;53.100;6.078;2024-03-29T06:53:35;8.30;99.90
52044;DHT22;38053;53.100;6.078;2024-03-29T06:56:01;8.40;99.90
52044;DHT22;38053;53.100;6.078;2024-03-29T06:58:27;8.40;99.90
52044;DHT22;38053;53.100;6.078;2024-03-29T07:00:53;8.50;99.90
52044;DHT22;38053;53.100;6.078;2024-03-29T07:03:19;8.60;99.90
52044;DHT22;38053;53.100;6.078;2024-03-29T07:05:48;8.60;99.90
52044;DHT22;38053;53.100;6.078;2024-03-29T07:08:17;8.60;99.90
52044;DHT22;38053;53.100;6.078;2024-03-29T07:11:01;8.70;99.90
52044;DHT22;38053;53.100;6.078;2024-03-29T07:13:29;8.80;99.90
52044;DHT22;38053;53.100;6.078;2024-03-29T07:15:55;8.80;99.90
52044;DHT22;38053;53.100;6.078;2024-03-29T07:18:21;8.90;99.90
52044;DHT22;38053;53.100;6.078;2024-03-29T07:20:46;8.90;99.90
52044;DHT22;38053;53.100;6.078;2024-03-29T07:23:18;8.90;99.90
52044;DHT22;38053;53.100;6.078;2024-03-29T08:51:33;9.80;99.90
52044;DHT22;38053;53.100;6.078;2024-03-29T08:53:58;9.80;99.90
52044;DHT22;38053;53.100;6.078;2024-03-29T08:56:24;9.90;99.90
52044;DHT22;38053;53.100;6.078;2024-03-29T08:58:50;10.00;99.90
52044;DHT22;38053;53.100;6.078;2024-03-29T09:01:15;10.20;99.90
52044;DHT22;38053;53.100;6.078;2024-03-29T09:03:41;10.20;99.90
52044;DHT22;38053;53.100;6.078;2024-03-29T09:06:06;10.20;99.90
52044;DHT22;38053;53.100;6.078;2024-03-29T09:08:32;10.30;99.90
52044;DHT22;38053;53.100;6.078;2024-03-29T09:10:58;10.30;99.90
52044;DHT22;38053;53.100;6.078;2024-03-29T09:13:24;10.30;99.90
52044;DHT22;38053;53.100;6.078;2024-03-29T09:15:49;10.40;99.90
52044;DHT22;38053;53.100;6.078;2024-03-29T09:18:15;10.40;99.90
52044;DHT22;38053;53.100;6.078;2024-03-29T09:20:59;10.50;99.90
52044;DHT22;38053;53.100;6.078;2024-03-29T09:23:26;10.50;99.90
52044;DHT22;38053;53.100;6.078;2024-03-29T09:25:54;10.50;99.90
52044;DHT22;38053;53.100;6.078;2024-03-29T09:28:22;10.60;99.90
52044;DHT22;38053;53.100;6.078;2024-03-29T09:31:08;10.60;99.90
52044;DHT22;38053;53.100;6.078;2024-03-29T09:33:37;10.70;99.90
52044;DHT22;38053;53.100;6.078;2024-03-29T09:36:03;10.80;99.90
52044;DHT22;38053;53.100;6.078;2024-03-29T09:38:29;10.90;99.90
52044;DHT22;38053;53.100;6.078;2024-03-29T09:43:24;11.10;99.90
52044;DHT22;38053;53.100;6.078;2024-03-29T09:45:50;11.20;99.90
52044;DHT22;38053;53.100;6.078;2024-03-29T09:48:16;11.30;99.90
52044;DHT22;38053;53.100;6.078;2024-03-29T09:50:42;11.50;99.90
52044;DHT22;38053;53.100;6.078;2024-03-29T09:53:07;11.50;99.90
52044;DHT22;38053;53.100;6.078;2024-03-29T09:55:37;11.40;99.90
52044;DHT22;38053;53.100;6.078;2024-03-29T09:58:05;11.50;99.90
52044;DHT22;38053;53.100;6.078;2024-03-29T10:00:31;11.30;99.90
52044;DHT22;38053;53.100;6.078;2024-03-29T10:02:57;11.30;99.90
52044;DHT22;38053;53.100;6.078;2024-03-29T10:05:24;11.30;99.90
52044;DHT22;38053;53.100;6.078;2024-03-29T10:07:53;11.60;99.90
52044;DHT22;38053;53.100;6.078;2024-03-29T10:10:19;11.70;99.90
52044;DHT22;38053;53.100;6.078;2024-03-29T10:12:45;11.70;99.90
52044;DHT22;38053;53.100;6.078;2024-03-29T10:15:10;11.80;99.90
52044;DHT22;38053;53.100;6.078;2024-03-29T10:17:47;11.70;99.90
52044;DHT22;38053;53.100;6.078;2024-03-29T10:20:19;11.70;99.90
52044;DHT22;38053;53.100;6.078;2024-03-29T10:22:49;11.70;99.90
52044;DHT22;38053;53.100;6.078;2024-03-29T10:25:17;11.70;99.90
52044;DHT22;38053;53.100;6.078;2024-03-29T10:27:53;11.80;99.90
52044;DHT22;38053;53.100;6.078;2024-03-29T10:30:19;11.90;99.90
52044;DHT22;38053;53.100;6.078;2024-03-29T10:33:18;11.90;99.90
52044;DHT22;38053;53.100;6.078;2024-03-29T10:35:50;11.90;99.90
52044;DHT22;38053;53.100;6.078;2024-03-29T10:38:16;11.90;99.90
52044;DHT22;38053;53.100;6.078;2024-03-29T10:40:42;11.80;99.90
52044;DHT22;38053;53.100;6.078;2024-03-29T10:43:11;11.90;99.90
52044;DHT22;38053;53.100;6.078;2024-03-29T10:45:42;11.90;99.90
52044;DHT22;38053;53.100;6.078;2024-03-29T10:48:09;12.00;99.90
52044;DHT22;38053;53.100;6.078;2024-03-29T10:50:42;12.20;99.90
52044;DHT22;38053;53.100;6.078;2024-03-29T10:53:12;12.30;99.90
52044;DHT22;38053;53.100;6.078;2024-03-29T10:55:45;12.30;99.90
52044;DHT22;38053;53.100;6.078;2024-03-29T10:58:11;12.60;99.90
52044;DHT22;38053;53.100;6.078;2024-03-29T11:00:39;12.70;99.90
52044;DHT22;38053;53.100;6.078;2024-03-29T11:03:25;12.80;99.90
52044;DHT22;38053;53.100;6.078;2024-03-29T11:05:59;12.90;99.90
52044;DHT22;38053;53.100;6.078;2024-03-29T11:08:28;13.00;99.90
52044;DHT22;38053;53.100;6.078;2024-03-29T11:10:58;13.10;99.90
52044;DHT22;38053;53.100;6.078;2024-03-29T11:16:15;13.30;99.90
52044;DHT22;38053;53.100;6.078;2024-03-29T11:18:43;13.30;99.90
52044;DHT22;38053;53.100;6.078;2024-03-29T11:21:12;13.40;99.90
52044;DHT22;38053;53.100;6.078;2024-03-29T11:23:52;13.70;99.90
52044;DHT22;38053;53.100;6.078;2024-03-29T11:30:02;14.30;99.90
52044;DHT22;38053;53.100;6.078;2024-03-29T11:43:34;14.50;99.90
52044;DHT22;38053;53.100;6.078;2024-03-29T11:46:01;15.10;99.90
52044;DHT22;38053;53.100;6.078;2024-03-29T11:49:06;15.20;99.90
52044;DHT22;38053;53.100;6.078;2024-03-29T11:51:41;15.30;99.90
52044;DHT22;38053;53.100;6.078;2024-03-29T11:54:08;15.50;99.90
52044;DHT22;38053;53.100;6.078;2024-03-29T11:56:34;15.60;99.90
52044;DHT22;38053;53.100;6.078;2024-03-29T12:02:24;15.20;99.90
52044;DHT22;38053;53.100;6.078;2024-03-29T12:05:12;15.10;99.90
52044;DHT22;38053;53.100;6.078;2024-03-29T12:07:38;14.90;99.90
52044;DHT22;38053;53.100;6.078;2024-03-29T12:10:04;14.70;99.90
52044;DHT22;38053;53.100;6.078;2024-03-29T12:12:30;14.60;99.90
52044;DHT22;38053;53.100;6.078;2024-03-29T12:15:00;14.50;99.90
52044;DHT22;38053;53.100;6.078;2024-03-29T12:17:26;14.40;99.90
52044;DHT22;38053;53.100;6.078;2024-03-29T12:19:58;14.30;99.90
52044;DHT22;38053;53.100;6.078;2024-03-29T12:22:27;14.10;99.90
52044;DHT22;38053;53.100;6.078;2024-03-29T12:24:53;14.10;99.90
52044;DHT22;38053;53.100;6.078;2024-03-29T12:27:21;14.20;99.90
52044;DHT22;38053;53.100;6.078;2024-03-29T12:29:50;14.40;99.90
52044;DHT22;38053;53.100;6.078;2024-03-29T12:32:19;14.40;99.90
52044;DHT22;38053;53.100;6.078;2024-03-29T12:34:45;14.40;99.90
52044;DHT22;38053;53.100;6.078;2024-03-29T12:37:12;14.30;99.90
52044;DHT22;38053;53.100;6.078;2024-03-29T12:39:47;14.20;99.90
52044;DHT22;38053;53.100;6.078;2024-03-29T12:42:22;14.20;99.90
52044;DHT22;38053;53.100;6.078;2024-03-29T12:44:48;14.10;99.90
52044;DHT22;38053;53.100;6.078;2024-03-29T12:47:23;14.00;99.90
52044;DHT22;38053;53.100;6.078;2024-03-29T12:49:52;14.00;99.90
52044;DHT22;38053;53.100;6.078;2024-03-29T12:52:25;14.00;99.90
52044;DHT22;38053;53.100;6.078;2024-03-29T12:54:50;14.10;99.90
52044;DHT22;38053;53.100;6.078;2024-03-29T12:57:19;14.20;99.90
52044;DHT22;38053;53.100;6.078;2024-03-29T12:59:44;14.40;99.90
52044;DHT22;38053;53.100;6.078;2024-03-29T13:02:24;14.60;99.90
52044;DHT22;38053;53.100;6.078;2024-03-29T13:04:50;14.70;99.90
52044;DHT22;38053;53.100;6.078;2024-03-29T13:07:16;14.70;99.90
52044;DHT22;38053;53.100;6.078;2024-03-29T13:09:42;14.70;99.90
52044;DHT22;38053;53.100;6.078;2024-03-29T13:12:47;14.70;99.90
52044;DHT22;38053;53.100;6.078;2024-03-29T13:15:17;14.60;99.90
52044;DHT22;38053;53.100;6.078;2024-03-29T13:17:43;14.50;99.90
52044;DHT22;38053;53.100;6.078;2024-03-29T13:20:09;14.30;99.90
52044;DHT22;38053;53.100;6.078;2024-03-29T13:22:36;14.30;99.90
52044;DHT22;38053;53.100;6.078;2024-03-29T13:25:03;14.20;99.90
52044;DHT22;38053;53.100;6.078;2024-03-29T13:27:39;14.10;99.90
52044;DHT22;38053;53.100;6.078;2024-03-29T13:30:09;14.00;99.90
52044;DHT22;38053;53.100;6.078;2024-03-29T13:32:39;13.90;99.90
52044;DHT22;38053;53.100;6.078;2024-03-29T13:35:14;13.70;99.90
52044;DHT22;38053;53.100;6.078;2024-03-29T13:37:41;13.50;99.90
52044;DHT22;38053;53.100;6.078;2024-03-29T13:40:09;13.50;99.90
52044;DHT22;38053;53.100;6.078;2024-03-29T13:42:38;13.50;99.90
52044;DHT22;38053;53.100;6.078;2024-03-29T13:45:38;13.60;99.90
52044;DHT22;38053;53.100;6.078;2024-03-29T13:48:04;13.70;99.90
52044;DHT22;38053;53.100;6.078;2024-03-29T13:50:31;13.70;99.90
52044;DHT22;38053;53.100;6.078;2024-03-29T13:52:56;13.80;99.90
52044;DHT22;38053;53.100;6.078;2024-03-29T13:55:22;13.90;99.90
52044;DHT22;38053;53.100;6.078;2024-03-29T13:57:54;14.10;99.90
52044;DHT22;38053;53.100;6.078;2024-03-29T14:00:24;14.20;99.90
52044;DHT22;38053;53.100;6.078;2024-03-29T14:02:50;14.10;99.90
52044;DHT22;38053;53.100;6.078;2024-03-29T14:05:15;14.30;99.90
52044;DHT22;38053;53.100;6.078;2024-03-29T14:07:41;14.50;99.90
52044;DHT22;38053;53.100;6.078;2024-03-29T14:10:07;14.70;99.90
52044;DHT22;38053;53.100;6.078;2024-03-29T14:13:02;14.80;99.90
52044;DHT22;38053;53.100;6.078;2024-03-29T14:15:27;14.80;99.90
52044;DHT22;38053;53.100;6.078;2024-03-29T14:17:53;14.80;99.90
52044;DHT22;38053;53.100;6.078;2024-03-29T14:20:19;14.80;99.90
52044;DHT22;38053;53.100;6.078;2024-03-29T14:22:44;14.90;99.90
52044;DHT22;38053;53.100;6.078;2024-03-29T14:25:10;15.00;99.90
52044;DHT22;38053;53.100;6.078;2024-03-29T14:27:36;15.10;99.90
52044;DHT22;38053;53.100;6.078;2024-03-29T14:30:14;15.20;99.90
52044;DHT22;38053;53.100;6.078;2024-03-29T14:32:40;15.50;99.90
52044;DHT22;38053;53.100;6.078;2024-03-29T14:35:09;15.60;99.90
52044;DHT22;38053;53.100;6.078;2024-03-29T14:37:37;15.50;99.90
52044;DHT22;38053;53.100;6.078;2024-03-29T14:40:03;15.40;99.90
52044;DHT22;38053;53.100;6.078;2024-03-29T14:42:30;15.30;99.90
52044;DHT22;38053;53.100;6.078;2024-03-29T14:44:56;15.10;99.90
52044;DHT22;38053;53.100;6.078;2024-03-29T14:47:22;14.90;99.90
52044;DHT22;38053;53.100;6.078;2024-03-29T14:49:57;14.60;99.90
52044;DHT22;38053;53.100;6.078;2024-03-29T14:52:23;14.50;99.90
52044;DHT22;38053;53.100;6.078;2024-03-29T14:54:49;14.50;99.90
52044;DHT22;38053;53.100;6.078;2024-03-29T14:57:24;14.40;99.90
52044;DHT22;38053;53.100;6.078;2024-03-29T14:59:50;14.40;99.90
52044;DHT22;38053;53.100;6.078;2024-03-29T15:02:15;14.50;99.90
52044;DHT22;38053;53.100;6.078;2024-03-29T15:04:44;14.80;99.90
52044;DHT22;38053;53.100;6.078;2024-03-29T15:07:10;15.00;99.90
52044;DHT22;38053;53.100;6.078;2024-03-29T15:09:36;15.20;99.90
52044;DHT22;38053;53.100;6.078;2024-03-29T15:12:05;15.10;99.90
52044;DHT22;38053;53.100;6.078;2024-03-29T15:14:31;15.00;99.90
52044;DHT22;38053;53.100;6.078;2024-03-29T15:16:57;14.80;99.90
52044;DHT22;38053;53.100;6.078;2024-03-29T15:19:23;14.90;99.90
52044;DHT22;38053;53.100;6.078;2024-03-29T15:21:51;15.00;99.90
52044;DHT22;38053;53.100;6.078;2024-03-29T15:24:17;15.10;99.90
52044;DHT22;38053;53.100;6.078;2024-03-29T15:26:43;15.10;99.90
52044;DHT22;38053;53.100;6.078;2024-03-29T15:29:08;15.30;99.90
52044;DHT22;38053;53.100;6.078;2024-03-29T15:31:37;15.60;99.90
52044;DHT22;38053;53.100;6.078;2024-03-29T15:34:04;15.70;99.90
52044;DHT22;38053;53.100;6.078;2024-03-29T15:36:31;15.60;99.90
52044;DHT22;38053;53.100;6.078;2024-03-29T15:38:57;15.50;99.90
52044;DHT22;38053;53.100;6.078;2024-03-29T15:41:31;15.50;99.90
52044;DHT22;38053;53.100;6.078;2024-03-29T15:43:57;15.40;99.90
52044;DHT22;38053;53.100;6.078;2024-03-29T15:46:27;15.30;99.90
52044;DHT22;38053;53.100;6.078;2024-03-29T15:48:53;15.20;99.90
52044;DHT22;38053;53.100;6.078;2024-03-29T15:51:19;15.20;99.90
52044;DHT22;38053;53.100;6.078;2024-03-29T15:53:45;15.40;99.90
52044;DHT22;38053;53.100;6.078;2024-03-29T15:56:23;15.50;99.90
52044;DHT22;38053;53.100;6.078;2024-03-29T15:58:49;15.40;99.90
52044;DHT22;38053;53.100;6.078;2024-03-29T16:01:18;15.60;99.90
52044;DHT22;38053;53.100;6.078;2024-03-29T16:03:53;15.80;99.90
52044;DHT22;38053;53.100;6.078;2024-03-29T16:06:19;15.80;99.90
52044;DHT22;38053;53.100;6.078;2024-03-29T16:08:45;15.60;99.90
52044;DHT22;38053;53.100;6.078;2024-03-29T16:11:10;15.40;99.90
52044;DHT22;38053;53.100;6.078;2024-03-29T16:13:36;15.40;99.90
52044;DHT22;38053;53.100;6.078;2024-03-29T16:16:03;15.60;99.90
52044;DHT22;38053;53.100;6.078;2024-03-29T16:18:30;15.50;99.90
52044;DHT22;38053;53.100;6.078;2024-03-29T16:20:58;15.30;99.90
52044;DHT22;38053;53.100;6.078;2024-03-29T16:23:24;15.00;99.90
52044;DHT22;38053;53.100;6.078;2024-03-29T16:25:50;14.90;99.90
52044;DHT22;38053;53.100;6.078;2024-03-29T16:28:20;14.80;99.90
52044;DHT22;38053;53.100;6.078;2024-03-29T16:30:50;14.60;99.90
52044;DHT22;38053;53.100;6.078;2024-03-29T16:33:17;14.50;99.90
52044;DHT22;38053;53.100;6.078;2024-03-29T16:35:43;14.40;99.90
52044;DHT22;38053;53.100;6.078;2024-03-29T16:38:43;14.30;99.90
52044;DHT22;38053;53.100;6.078;2024-03-29T16:41:09;14.20;99.90
52044;DHT22;38053;53.100;6.078;2024-03-29T16:43:35;14.10;99.90
52044;DHT22;38053;53.100;6.078;2024-03-29T16:46:00;14.10;99.90
52044;DHT22;38053;53.100;6.078;2024-03-29T16:48:26;14.10;99.90
52044;DHT22;38053;53.100;6.078;2024-03-29T16:50:53;14.00;99.90
52044;DHT22;38053;53.100;6.078;2024-03-29T16:53:19;14.00;99.90
52044;DHT22;38053;53.100;6.078;2024-03-29T16:55:44;13.90;99.90
52044;DHT22;38053;53.100;6.078;2024-03-29T16:58:10;13.80;99.90
52044;DHT22;38053;53.100;6.078;2024-03-29T17:00:36;13.70;99.90
52044;DHT22;38053;53.100;6.078;2024-03-29T17:03:01;13.70;99.90
52044;DHT22;38053;53.100;6.078;2024-03-29T17:05:47;13.60;99.90
52044;DHT22;38053;53.100;6.078;2024-03-29T17:08:13;13.50;99.90
52044;DHT22;38053;53.100;6.078;2024-03-29T17:10:39;13.40;99.90
52044;DHT22;38053;53.100;6.078;2024-03-29T18:25:21;11.00;99.90
52044;DHT22;38053;53.100;6.078;2024-03-29T18:27:50;10.90;99.90
52044;DHT22;38053;53.100;6.078;2024-03-29T18:30:16;10.80;99.90
52044;DHT22;38053;53.100;6.078;2024-03-29T18:32:41;10.80;99.90
52044;DHT22;38053;53.100;6.078;2024-03-29T18:35:07;10.70;99.90
52044;DHT22;38053;53.100;6.078;2024-03-29T18:37:33;10.70;99.90
52044;DHT22;38053;53.100;6.078;2024-03-29T18:40:01;10.60;99.90
52044;DHT22;38053;53.100;6.078;2024-03-29T18:42:28;10.60;99.90
52044;DHT22;38053;53.100;6.078;2024-03-29T18:44:54;10.50;99.90
52044;DHT22;38053;53.100;6.078;2024-03-29T18:47:19;10.50;99.90